sensor_id;sensor_type;location;lat;lon;timestamp;pressure;altitude;pressure_sealevel;temperature;humidity
11448;BME280;43755;49.736;8.734;2023-05-20T00:00:12;98176.38;;;10.20;100.00
11448;BME280;43755;49.736;8.734;2023-05-20T00:02:14;98171.09;;;10.20;100.00
11448;BME280;43755;49.736;8.734;2023-05-20T00:04:17;98168.59;;;10.15;100.00
11448;BME280;43755;49.736;8.734;2023-05-20T00:06:18;98172.94;;;10.18;100.00
11448;BME280;43755;49.736;8.734;2023-05-20T00:08:20;98168.59;;;10.15;100.00
11448;BME280;43755;49.736;8.734;2023-05-20T00:10:21;98172.22;;;10.13;100.00
11448;BME280;43755;49.736;8.734;2023-05-20T00:12:23;98176.66;;;10.12;100.00
11448;BME280;43755;49.736;8.734;2023-05-20T00:14:24;98172.56;;;10.04;100.00
11448;BME280;43755;49.736;8.734;2023-05-20T00:16:25;98165.06;;;9.93;100.00
11448;BME280;43755;49.736;8.734;2023-05-20T00:18:27;98167.75;;;9.92;100.00
11448;BME280;43755;49.736;8.734;2023-05-20T00:20:30;98172.16;;;9.91;100.00
11448;BME280;43755;49.736;8.734;2023-05-20T00:22:32;98171.25;;;9.92;100.00
11448;BME280;43755;49.736;8.734;2023-05-20T00:24:33;98167.75;;;9.92;100.00
11448;BME280;43755;49.736;8.734;2023-05-20T00:26:35;98163.38;;;9.91;100.00
11448;BME280;43755;49.736;8.734;2023-05-20T00:28:36;98166.19;;;9.86;100.00
11448;BME280;43755;49.736;8.734;2023-05-20T00:30:38;98169.88;;;9.82;100.00
11448;BME280;43755;49.736;8.734;2023-05-20T00:32:40;98168.09;;;9.82;100.00
11448;BME280;43755;49.736;8.734;2023-05-20T00:34:42;98163.91;;;9.77;100.00
11448;BME280;43755;49.736;8.734;2023-05-20T00:36:44;98160.06;;;9.61;100.00
11448;BME280;43755;49.736;8.734;2023-05-20T00:38:48;98163.00;;;9.53;100.00
11448;BME280;43755;49.736;8.734;2023-05-20T00:40:49;98163.31;;;9.44;100.00
11448;BME280;43755;49.736;8.734;2023-05-20T00:42:51;98158.00;;;9.45;100.00
11448;BME280;43755;49.736;8.734;2023-05-20T00:44:53;98157.88;;;9.49;100.00
11448;BME280;43755;49.736;8.734;2023-05-20T00:46:54;98159.28;;;9.34;100.00
11448;BME280;43755;49.736;8.734;2023-05-20T00:48:56;98150.84;;;9.24;100.00
11448;BME280;43755;49.736;8.734;2023-05-20T00:50:58;98153.53;;;9.23;100.00
11448;BME280;43755;49.736;8.734;2023-05-20T00:53:02;98142.19;;;9.19;100.00
11448;BME280;43755;49.736;8.734;2023-05-20T00:55:04;98143.44;;;9.09;100.00
11448;BME280;43755;49.736;8.734;2023-05-20T00:57:06;98145.38;;;9.04;100.00
11448;BME280;43755;49.736;8.734;2023-05-20T00:59:08;98146.66;;;8.92;100.00
11448;BME280;43755;49.736;8.734;2023-05-20T01:01:10;98146.88;;;8.86;100.00
11448;BME280;43755;49.736;8.734;2023-05-20T01:03:11;98147.91;;;8.82;100.00
11448;BME280;43755;49.736;8.734;2023-05-20T01:05:13;98149.75;;;8.79;100.00
11448;BME280;43755;49.736;8.734;2023-05-20T01:07:15;98140.34;;;8.72;100.00
11448;BME280;43755;49.736;8.734;2023-05-20T01:09:18;98133.34;;;8.71;100.00
11448;BME280;43755;49.736;8.734;2023-05-20T01:11:25;98134.78;;;8.79;100.00
11448;BME280;43755;49.736;8.734;2023-05-20T01:13:32;98133.81;;;8.83;100.00
11448;BME280;43755;49.736;8.734;2023-05-20T01:15:37;98130.00;;;8.90;100.00
11448;BME280;43755;49.736;8.734;2023-05-20T01:17:42;98130.09;;;8.89;100.00
11448;BME280;43755;49.736;8.734;2023-05-20T01:19:46;98131.09;;;8.85;100.00
11448;BME280;43755;49.736;8.734;2023-05-20T01:21:49;98127.88;;;8.77;100.00
11448;BME280;43755;49.736;8.734;2023-05-20T01:23:54;98125.16;;;8.78;100.00
11448;BME280;43755;49.736;8.734;2023-05-20T01:25:55;98125.16;;;8.78;100.00
11448;BME280;43755;49.736;8.734;2023-05-20T01:27:57;98125.06;;;8.81;100.00
11448;BME280;43755;49.736;8.734;2023-05-20T01:29:58;98121.56;;;8.81;100.00
11448;BME280;43755;49.736;8.734;2023-05-20T01:32:00;98123.53;;;8.74;100.00
11448;BME280;43755;49.736;8.734;2023-05-20T01:34:05;98118.47;;;8.68;100.00
11448;BME280;43755;49.736;8.734;2023-05-20T01:36:07;98120.94;;;8.73;100.00
11448;BME280;43755;49.736;8.734;2023-05-20T01:38:10;98125.69;;;8.63;100.00
11448;BME280;43755;49.736;8.734;2023-05-20T01:40:15;98121.34;;;8.60;100.00
11448;BME280;43755;49.736;8.734;2023-05-20T01:42:16;98121.31;;;8.62;100.00
11448;BME280;43755;49.736;8.734;2023-05-20T01:44:18;98121.34;;;8.60;100.00
11448;BME280;43755;49.736;8.734;2023-05-20T01:46:20;98113.56;;;8.57;100.00
11448;BME280;43755;49.736;8.734;2023-05-20T01:48:21;98115.88;;;8.67;100.00
11448;BME280;43755;49.736;8.734;2023-05-20T01:50:23;98114.00;;;8.70;100.00
11448;BME280;43755;49.736;8.734;2023-05-20T01:52:25;98105.91;;;8.76;100.00
11448;BME280;43755;49.736;8.734;2023-05-20T01:54:27;98115.81;;;8.68;100.00
11448;BME280;43755;49.736;8.734;2023-05-20T01:56:29;98111.66;;;8.61;100.00
11448;BME280;43755;49.736;8.734;2023-05-20T01:58:31;98106.50;;;8.58;100.00
11448;BME280;43755;49.736;8.734;2023-05-20T02:00:32;98106.38;;;8.61;100.00
11448;BME280;43755;49.736;8.734;2023-05-20T02:02:34;98105.41;;;8.65;100.00
11448;BME280;43755;49.736;8.734;2023-05-20T02:04:35;98109.72;;;8.66;100.00
11448;BME280;43755;49.736;8.734;2023-05-20T02:06:36;98102.84;;;8.62;100.00
11448;BME280;43755;49.736;8.734;2023-05-20T02:08:38;98097.53;;;8.63;100.00
11448;BME280;43755;49.736;8.734;2023-05-20T02:10:39;98092.28;;;8.62;100.00
11448;BME280;43755;49.736;8.734;2023-05-20T02:12:42;98097.38;;;8.68;100.00
11448;BME280;43755;49.736;8.734;2023-05-20T02:14:45;98095.75;;;8.64;100.00
11448;BME280;43755;49.736;8.734;2023-05-20T02:16:48;98097.22;;;8.73;100.00
11448;BME280;43755;49.736;8.734;2023-05-20T02:18:49;98093.91;;;8.66;100.00
11448;BME280;43755;49.736;8.734;2023-05-20T02:20:52;98092.88;;;8.72;100.00
11448;BME280;43755;49.736;8.734;2023-05-20T02:22:53;98091.19;;;8.69;100.00
11448;BME280;43755;49.736;8.734;2023-05-20T02:24:55;98093.81;;;8.69;100.00
11448;BME280;43755;49.736;8.734;2023-05-20T02:26:56;98090.38;;;8.67;100.00
11448;BME280;43755;49.736;8.734;2023-05-20T02:28:59;98091.19;;;8.69;100.00
11448;BME280;43755;49.736;8.734;2023-05-20T02:31:00;98086.88;;;8.67;100.00
11448;BME280;43755;49.736;8.734;2023-05-20T02:33:02;98083.69;;;8.57;100.00
11448;BME280;43755;49.736;8.734;2023-05-20T02:35:04;98075.72;;;8.58;100.00
11448;BME280;43755;49.736;8.734;2023-05-20T02:37:05;98071.97;;;8.66;100.00
11448;BME280;43755;49.736;8.734;2023-05-20T02:39:07;98078.50;;;8.80;100.00
11448;BME280;43755;49.736;8.734;2023-05-20T02:41:08;98072.41;;;8.78;100.00
11448;BME280;43755;49.736;8.734;2023-05-20T02:43:10;98068.88;;;8.78;100.00
11448;BME280;43755;49.736;8.734;2023-05-20T02:45:13;98063.69;;;8.76;100.00
11448;BME280;43755;49.736;8.734;2023-05-20T02:47:14;98061.22;;;8.72;100.00
11448;BME280;43755;49.736;8.734;2023-05-20T02:49:15;98064.59;;;8.75;100.00
11448;BME280;43755;49.736;8.734;2023-05-20T02:51:17;98067.41;;;8.71;100.00
11448;BME280;43755;49.736;8.734;2023-05-20T02:53:18;98062.06;;;8.72;100.00
11448;BME280;43755;49.736;8.734;2023-05-20T02:55:20;98059.22;;;8.78;100.00
11448;BME280;43755;49.736;8.734;2023-05-20T02:57:23;98060.69;;;8.87;100.00
11448;BME280;43755;49.736;8.734;2023-05-20T02:59:26;98055.44;;;8.85;100.00
11448;BME280;43755;49.736;8.734;2023-05-20T03:01:29;98053.94;;;9.03;100.00
11448;BME280;43755;49.736;8.734;2023-05-20T03:03:30;98053.75;;;9.08;100.00
11448;BME280;43755;49.736;8.734;2023-05-20T03:05:32;98057.56;;;9.00;100.00
11448;BME280;43755;49.736;8.734;2023-05-20T03:07:36;98054.75;;;9.05;100.00
11448;BME280;43755;49.736;8.734;2023-05-20T03:09:38;98056.56;;;9.03;100.00
11448;BME280;43755;49.736;8.734;2023-05-20T03:11:39;98061.25;;;9.20;100.00
11448;BME280;43755;49.736;8.734;2023-05-20T03:13:40;98047.78;;;9.27;100.00
11448;BME280;43755;49.736;8.734;2023-05-20T03:15:42;98050.19;;;9.33;100.00
11448;BME280;43755;49.736;8.734;2023-05-20T03:17:45;98048.91;;;9.43;100.00
11448;BME280;43755;49.736;8.734;2023-05-20T03:19:47;98046.13;;;9.48;100.00
11448;BME280;43755;49.736;8.734;2023-05-20T03:21:48;98045.41;;;9.43;100.00
11448;BME280;43755;49.736;8.734;2023-05-20T03:23:50;98051.63;;;9.42;100.00
11448;BME280;43755;49.736;8.734;2023-05-20T03:25:52;98049.59;;;9.49;100.00
11448;BME280;43755;49.736;8.734;2023-05-20T03:27:53;98049.13;;;9.61;100.00
11448;BME280;43755;49.736;8.734;2023-05-20T03:29:55;98051.09;;;9.56;100.00
11448;BME280;43755;49.736;8.734;2023-05-20T03:31:56;98052.72;;;9.60;100.00
11448;BME280;43755;49.736;8.734;2023-05-20T03:33:59;98054.41;;;9.61;100.00
11448;BME280;43755;49.736;8.734;2023-05-20T03:36:00;98050.88;;;9.62;100.00
11448;BME280;43755;49.736;8.734;2023-05-20T03:38:01;98046.25;;;9.67;100.00
11448;BME280;43755;49.736;8.734;2023-05-20T03:40:04;98051.41;;;9.71;100.00
11448;BME280;43755;49.736;8.734;2023-05-20T03:42:06;98054.03;;;9.71;100.00
11448;BME280;43755;49.736;8.734;2023-05-20T03:44:07;98050.28;;;9.77;100.00
11448;BME280;43755;49.736;8.734;2023-05-20T03:46:08;98046.13;;;9.71;100.00
11448;BME280;43755;49.736;8.734;2023-05-20T03:48:10;98052.31;;;9.70;100.00
11448;BME280;43755;49.736;8.734;2023-05-20T03:50:13;98053.03;;;9.74;100.00
11448;BME280;43755;49.736;8.734;2023-05-20T03:52:14;98060.91;;;9.75;100.00
11448;BME280;43755;49.736;8.734;2023-05-20T03:54:15;98056.44;;;9.77;100.00
11448;BME280;43755;49.736;8.734;2023-05-20T03:56:17;98056.06;;;9.86;100.00
11448;BME280;43755;49.736;8.734;2023-05-20T03:58:18;98048.88;;;9.90;100.00
11448;BME280;43755;49.736;8.734;2023-05-20T04:00:21;98048.78;;;9.93;100.00
11448;BME280;43755;49.736;8.734;2023-05-20T04:02:23;98047.91;;;9.93;100.00
11448;BME280;43755;49.736;8.734;2023-05-20T04:04:24;98052.91;;;10.00;100.00
11448;BME280;43755;49.736;8.734;2023-05-20T04:06:27;98054.63;;;10.01;100.00
11448;BME280;43755;49.736;8.734;2023-05-20T04:08:28;98047.38;;;10.06;100.00
11448;BME280;43755;49.736;8.734;2023-05-20T04:10:30;98054.53;;;10.03;100.00
11448;BME280;43755;49.736;8.734;2023-05-20T04:12:32;98055.41;;;10.03;100.00
11448;BME280;43755;49.736;8.734;2023-05-20T04:14:35;98054.69;;;10.00;100.00
11448;BME280;43755;49.736;8.734;2023-05-20T04:16:38;98046.41;;;10.07;100.00
11448;BME280;43755;49.736;8.734;2023-05-20T04:18:39;98041.69;;;10.15;100.00
11448;BME280;43755;49.736;8.734;2023-05-20T04:20:40;98048.50;;;10.22;100.00
11448;BME280;43755;49.736;8.734;2023-05-20T04:22:44;98046.78;;;10.21;100.00
11448;BME280;43755;49.736;8.734;2023-05-20T04:24:45;98050.22;;;10.23;100.00
11448;BME280;43755;49.736;8.734;2023-05-20T04:26:46;98046.47;;;10.29;100.00
11448;BME280;43755;49.736;8.734;2023-05-20T04:28:48;98047.38;;;10.28;100.00
11448;BME280;43755;49.736;8.734;2023-05-20T04:30:57;98045.41;;;10.33;100.00
11448;BME280;43755;49.736;8.734;2023-05-20T04:32:59;98037.28;;;10.38;100.00
11448;BME280;43755;49.736;8.734;2023-05-20T04:35:02;98035.31;;;10.43;100.00
11448;BME280;43755;49.736;8.734;2023-05-20T04:37:07;98040.19;;;10.53;100.00
11448;BME280;43755;49.736;8.734;2023-05-20T04:39:10;98038.03;;;10.61;100.00
11448;BME280;43755;49.736;8.734;2023-05-20T04:41:12;98043.41;;;10.60;100.00
11448;BME280;43755;49.736;8.734;2023-05-20T04:43:15;98044.75;;;10.70;100.00
11448;BME280;43755;49.736;8.734;2023-05-20T04:45:16;98041.69;;;10.79;100.00
11448;BME280;43755;49.736;8.734;2023-05-20T04:47:18;98044.94;;;10.86;100.00
11448;BME280;43755;49.736;8.734;2023-05-20T04:49:19;98049.59;;;11.01;100.00
11448;BME280;43755;49.736;8.734;2023-05-20T04:51:21;98038.13;;;11.00;100.00
11448;BME280;43755;49.736;8.734;2023-05-20T04:53:22;98037.22;;;11.01;100.00
11448;BME280;43755;49.736;8.734;2023-05-20T04:55:25;98042.75;;;11.16;100.00
11448;BME280;43755;49.736;8.734;2023-05-20T04:57:27;98044.41;;;11.18;100.00
11448;BME280;43755;49.736;8.734;2023-05-20T04:59:29;98034.41;;;11.25;100.00
11448;BME280;43755;49.736;8.734;2023-05-20T05:01:30;98034.19;;;11.29;100.00
11448;BME280;43755;49.736;8.734;2023-05-20T05:03:32;98033.41;;;11.46;100.00
11448;BME280;43755;49.736;8.734;2023-05-20T05:05:33;98035.34;;;11.61;100.00
11448;BME280;43755;49.736;8.734;2023-05-20T05:07:35;98040.25;;;11.70;100.00
11448;BME280;43755;49.736;8.734;2023-05-20T05:09:37;98040.31;;;11.69;100.00
11448;BME280;43755;49.736;8.734;2023-05-20T05:11:39;98036.09;;;11.65;100.00
11448;BME280;43755;49.736;8.734;2023-05-20T05:13:41;98031.38;;;11.71;100.00
11448;BME280;43755;49.736;8.734;2023-05-20T05:15:42;98043.34;;;11.80;100.00
11448;BME280;43755;49.736;8.734;2023-05-20T05:17:44;98039.13;;;11.76;100.00
11448;BME280;43755;49.736;8.734;2023-05-20T05:19:45;98035.41;;;11.80;100.00
11448;BME280;43755;49.736;8.734;2023-05-20T05:21:46;98028.38;;;11.79;100.00
11448;BME280;43755;49.736;8.734;2023-05-20T05:23:48;98028.94;;;11.85;100.00
11448;BME280;43755;49.736;8.734;2023-05-20T05:25:50;98029.81;;;11.86;100.00
11448;BME280;43755;49.736;8.734;2023-05-20T05:27:53;98020.00;;;11.88;100.00
11448;BME280;43755;49.736;8.734;2023-05-20T05:29:54;98025.53;;;11.83;100.00
11448;BME280;43755;49.736;8.734;2023-05-20T05:31:55;98028.94;;;11.85;100.00
11448;BME280;43755;49.736;8.734;2023-05-20T05:33:57;98030.09;;;11.80;100.00
11448;BME280;43755;49.736;8.734;2023-05-20T05:35:58;98026.56;;;11.79;100.00
11448;BME280;43755;49.736;8.734;2023-05-20T05:38:01;98022.06;;;11.81;100.00
11448;BME280;43755;49.736;8.734;2023-05-20T05:40:03;98024.50;;;11.86;100.00
11448;BME280;43755;49.736;8.734;2023-05-20T05:42:06;98021.34;;;11.97;100.00
11448;BME280;43755;49.736;8.734;2023-05-20T05:44:08;98026.16;;;12.07;100.00
11448;BME280;43755;49.736;8.734;2023-05-20T05:46:10;98022.63;;;12.07;100.00
11448;BME280;43755;49.736;8.734;2023-05-20T05:48:11;98012.19;;;12.21;100.00
11448;BME280;43755;49.736;8.734;2023-05-20T05:50:13;98018.44;;;12.37;100.00
11448;BME280;43755;49.736;8.734;2023-05-20T05:52:14;98013.00;;;12.40;100.00
11448;BME280;43755;49.736;8.734;2023-05-20T05:54:15;98014.81;;;12.40;100.00
11448;BME280;43755;49.736;8.734;2023-05-20T05:56:17;98007.69;;;12.23;100.00
11448;BME280;43755;49.736;8.734;2023-05-20T05:58:18;98013.78;;;12.25;100.00
11448;BME280;43755;49.736;8.734;2023-05-20T06:00:21;98008.31;;;12.45;100.00
11448;BME280;43755;49.736;8.734;2023-05-20T06:02:22;98015.34;;;12.46;100.00
11448;BME280;43755;49.736;8.734;2023-05-20T06:04:24;98013.88;;;12.41;100.00
11448;BME280;43755;49.736;8.734;2023-05-20T06:06:25;98010.06;;;12.63;100.00
11448;BME280;43755;49.736;8.734;2023-05-20T06:08:27;98007.41;;;12.63;100.00
11448;BME280;43755;49.736;8.734;2023-05-20T06:10:28;98004.19;;;12.74;100.00
11448;BME280;43755;49.736;8.734;2023-05-20T06:12:29;98010.69;;;12.51;100.00
11448;BME280;43755;49.736;8.734;2023-05-20T06:14:31;98003.50;;;12.36;100.00
11448;BME280;43755;49.736;8.734;2023-05-20T06:16:34;98010.13;;;12.45;100.00
11448;BME280;43755;49.736;8.734;2023-05-20T06:18:35;98014.19;;;12.52;100.00
11448;BME280;43755;49.736;8.734;2023-05-20T06:20:37;98016.38;;;12.61;100.00
11448;BME280;43755;49.736;8.734;2023-05-20T06:22:38;98012.47;;;12.51;100.00
11448;BME280;43755;49.736;8.734;2023-05-20T06:24:39;98013.03;;;12.57;100.00
11448;BME280;43755;49.736;8.734;2023-05-20T06:26:41;98013.72;;;12.61;100.00
11448;BME280;43755;49.736;8.734;2023-05-20T06:28:45;98018.56;;;12.53;100.00
11448;BME280;43755;49.736;8.734;2023-05-20T06:30:46;98000.28;;;12.47;100.00
11448;BME280;43755;49.736;8.734;2023-05-20T06:32:49;97997.41;;;12.68;100.00
11448;BME280;43755;49.736;8.734;2023-05-20T06:34:50;97998.50;;;12.82;100.00
11448;BME280;43755;49.736;8.734;2023-05-20T06:36:52;97994.59;;;12.71;100.00
11448;BME280;43755;49.736;8.734;2023-05-20T06:38:53;97994.59;;;12.71;100.00
11448;BME280;43755;49.736;8.734;2023-05-20T06:40:55;97994.13;;;12.81;100.00
11448;BME280;43755;49.736;8.734;2023-05-20T06:42:56;97989.50;;;12.84;100.00
11448;BME280;43755;49.736;8.734;2023-05-20T06:44:57;97995.13;;;12.95;100.00
11448;BME280;43755;49.736;8.734;2023-05-20T06:46:59;97994.63;;;13.04;100.00
11448;BME280;43755;49.736;8.734;2023-05-20T06:49:01;97996.19;;;13.26;100.00
11448;BME280;43755;49.736;8.734;2023-05-20T06:51:04;97987.97;;;13.30;100.00
11448;BME280;43755;49.736;8.734;2023-05-20T06:53:06;97994.19;;;13.46;100.00
11448;BME280;43755;49.736;8.734;2023-05-20T06:55:08;97984.06;;;13.53;100.00
11448;BME280;43755;49.736;8.734;2023-05-20T06:57:10;97981.94;;;13.75;100.00
11448;BME280;43755;49.736;8.734;2023-05-20T06:59:11;97987.50;;;14.02;100.00
11448;BME280;43755;49.736;8.734;2023-05-20T07:01:12;97988.00;;;14.24;100.00
11448;BME280;43755;49.736;8.734;2023-05-20T07:03:14;97982.50;;;14.27;100.00
11448;BME280;43755;49.736;8.734;2023-05-20T07:05:17;97977.22;;;14.12;100.00
11448;BME280;43755;49.736;8.734;2023-05-20T07:07:18;97981.41;;;14.16;100.00
11448;BME280;43755;49.736;8.734;2023-05-20T07:09:20;97976.22;;;14.28;100.00
11448;BME280;43755;49.736;8.734;2023-05-20T07:11:21;97977.28;;;14.56;100.00
11448;BME280;43755;49.736;8.734;2023-05-20T07:13:22;97974.75;;;14.54;100.00
11448;BME280;43755;49.736;8.734;2023-05-20T07:15:25;97972.13;;;14.39;100.00
11448;BME280;43755;49.736;8.734;2023-05-20T07:17:26;97972.56;;;14.61;100.00
11448;BME280;43755;49.736;8.734;2023-05-20T07:19:28;97968.50;;;14.69;100.00
11448;BME280;43755;49.736;8.734;2023-05-20T07:21:31;97968.38;;;15.01;100.00
11448;BME280;43755;49.736;8.734;2023-05-20T07:23:32;97966.19;;;15.22;100.00
11448;BME280;43755;49.736;8.734;2023-05-20T07:25:34;97953.47;;;15.55;100.00
11448;BME280;43755;49.736;8.734;2023-05-20T07:27:35;97962.53;;;15.79;100.00
11448;BME280;43755;49.736;8.734;2023-05-20T07:29:37;97960.72;;;15.94;100.00
11448;BME280;43755;49.736;8.734;2023-05-20T07:31:38;97960.56;;;15.69;100.00
11448;BME280;43755;49.736;8.734;2023-05-20T07:33:40;97956.06;;;15.83;100.00
11448;BME280;43755;49.736;8.734;2023-05-20T07:35:41;97961.50;;;16.09;100.00
11448;BME280;43755;49.736;8.734;2023-05-20T07:37:44;97961.00;;;16.16;100.00
11448;BME280;43755;49.736;8.734;2023-05-20T07:39:46;97962.59;;;16.46;100.00
11448;BME280;43755;49.736;8.734;2023-05-20T07:41:47;97955.88;;;16.67;100.00
11448;BME280;43755;49.736;8.734;2023-05-20T07:43:48;97946.38;;;17.01;100.00
11448;BME280;43755;49.736;8.734;2023-05-20T07:45:50;97954.59;;;16.85;97.08
11448;BME280;43755;49.736;8.734;2023-05-20T07:47:51;97953.69;;;16.32;100.00
11448;BME280;43755;49.736;8.734;2023-05-20T07:49:53;97955.09;;;16.65;100.00
11448;BME280;43755;49.736;8.734;2023-05-20T07:51:54;97954.81;;;16.95;100.00
11448;BME280;43755;49.736;8.734;2023-05-20T07:53:57;97953.28;;;16.65;100.00
11448;BME280;43755;49.736;8.734;2023-05-20T07:55:58;97955.84;;;16.40;100.00
11448;BME280;43755;49.736;8.734;2023-05-20T07:58:00;97950.00;;;15.67;100.00
11448;BME280;43755;49.736;8.734;2023-05-20T08:00:02;97941.97;;;15.81;100.00
11448;BME280;43755;49.736;8.734;2023-05-20T08:02:05;97936.06;;;15.76;100.00
11448;BME280;43755;49.736;8.734;2023-05-20T08:04:06;97946.44;;;15.81;100.00
11448;BME280;43755;49.736;8.734;2023-05-20T08:06:08;97937.09;;;15.88;100.00
11448;BME280;43755;49.736;8.734;2023-05-20T08:08:09;97941.25;;;15.92;100.00
11448;BME280;43755;49.736;8.734;2023-05-20T08:10:12;97949.25;;;16.06;100.00
11448;BME280;43755;49.736;8.734;2023-05-20T08:12:14;97960.91;;;16.18;100.00
11448;BME280;43755;49.736;8.734;2023-05-20T08:14:15;97957.16;;;16.20;100.00
11448;BME280;43755;49.736;8.734;2023-05-20T08:16:16;97946.81;;;16.43;100.00
11448;BME280;43755;49.736;8.734;2023-05-20T08:18:18;97946.63;;;16.58;100.00
11448;BME280;43755;49.736;8.734;2023-05-20T08:20:19;97948.66;;;16.55;100.00
11448;BME280;43755;49.736;8.734;2023-05-20T08:22:21;97940.03;;;16.64;100.00
11448;BME280;43755;49.736;8.734;2023-05-20T08:24:22;97939.25;;;16.49;99.91
11448;BME280;43755;49.736;8.734;2023-05-20T08:26:25;97932.19;;;16.48;99.51
11448;BME280;43755;49.736;8.734;2023-05-20T08:28:26;97942.97;;;16.47;99.35
11448;BME280;43755;49.736;8.734;2023-05-20T08:30:28;97933.31;;;16.44;100.00
11448;BME280;43755;49.736;8.734;2023-05-20T08:32:30;97938.78;;;16.43;100.00
11448;BME280;43755;49.736;8.734;2023-05-20T08:34:32;97938.06;;;16.53;99.60
11448;BME280;43755;49.736;8.734;2023-05-20T08:36:33;97941.69;;;16.52;100.00
11448;BME280;43755;49.736;8.734;2023-05-20T08:38:34;97947.25;;;16.49;100.00
11448;BME280;43755;49.736;8.734;2023-05-20T08:40:36;97952.44;;;16.65;97.04
11448;BME280;43755;49.736;8.734;2023-05-20T08:42:41;97940.41;;;16.85;98.02
11448;BME280;43755;49.736;8.734;2023-05-20T08:44:44;97957.59;;;17.06;95.71
11448;BME280;43755;49.736;8.734;2023-05-20T08:46:47;97950.66;;;17.16;96.07
11448;BME280;43755;49.736;8.734;2023-05-20T08:48:50;97957.91;;;16.89;94.65
11448;BME280;43755;49.736;8.734;2023-05-20T08:50:52;97964.00;;;17.03;96.00
11448;BME280;43755;49.736;8.734;2023-05-20T08:52:53;97949.88;;;17.27;95.93
11448;BME280;43755;49.736;8.734;2023-05-20T08:54:55;97945.81;;;17.34;93.26
11448;BME280;43755;49.736;8.734;2023-05-20T08:56:56;97954.16;;;16.91;93.62
11448;BME280;43755;49.736;8.734;2023-05-20T08:59:02;97960.03;;;16.71;93.78
11448;BME280;43755;49.736;8.734;2023-05-20T09:01:05;97944.13;;;16.82;97.56
11448;BME280;43755;49.736;8.734;2023-05-20T09:03:07;97954.03;;;16.67;96.00
11448;BME280;43755;49.736;8.734;2023-05-20T09:05:09;97955.25;;;17.01;99.81
11448;BME280;43755;49.736;8.734;2023-05-20T09:07:11;97954.19;;;17.16;95.95
11448;BME280;43755;49.736;8.734;2023-05-20T09:09:13;97951.94;;;17.23;92.83
11448;BME280;43755;49.736;8.734;2023-05-20T09:11:14;97933.31;;;17.22;90.82
11448;BME280;43755;49.736;8.734;2023-05-20T09:13:16;97935.66;;;17.26;94.48
11448;BME280;43755;49.736;8.734;2023-05-20T09:15:19;97935.88;;;17.10;93.06
11448;BME280;43755;49.736;8.734;2023-05-20T09:17:20;97932.59;;;16.94;96.29
11448;BME280;43755;49.736;8.734;2023-05-20T09:19:22;97917.59;;;17.17;95.15
11448;BME280;43755;49.736;8.734;2023-05-20T09:21:25;97923.91;;;17.16;95.21
11448;BME280;43755;49.736;8.734;2023-05-20T09:23:27;97919.41;;;17.29;94.16
11448;BME280;43755;49.736;8.734;2023-05-20T09:25:30;97913.63;;;17.48;97.04
11448;BME280;43755;49.736;8.734;2023-05-20T09:27:31;97917.34;;;17.45;90.50
11448;BME280;43755;49.736;8.734;2023-05-20T09:29:32;97923.38;;;17.24;91.20
11448;BME280;43755;49.736;8.734;2023-05-20T09:31:35;97931.09;;;16.90;89.27
11448;BME280;43755;49.736;8.734;2023-05-20T09:33:37;97941.13;;;16.99;92.79
11448;BME280;43755;49.736;8.734;2023-05-20T09:35:40;97942.94;;;17.11;90.36
11448;BME280;43755;49.736;8.734;2023-05-20T09:37:42;97946.47;;;16.99;89.14
11448;BME280;43755;49.736;8.734;2023-05-20T09:39:51;97931.19;;;16.89;90.75
11448;BME280;43755;49.736;8.734;2023-05-20T09:42:00;97925.53;;;17.06;91.65
11448;BME280;43755;49.736;8.734;2023-05-20T09:44:03;97922.50;;;17.36;93.05
11448;BME280;43755;49.736;8.734;2023-05-20T09:46:06;97930.94;;;17.55;87.58
11448;BME280;43755;49.736;8.734;2023-05-20T09:48:09;97928.34;;;17.79;86.83
11448;BME280;43755;49.736;8.734;2023-05-20T09:50:13;97926.25;;;17.95;90.45
11448;BME280;43755;49.736;8.734;2023-05-20T09:52:15;97938.81;;;18.06;86.89
11448;BME280;43755;49.736;8.734;2023-05-20T09:54:18;97937.28;;;17.90;88.10
11448;BME280;43755;49.736;8.734;2023-05-20T09:56:19;97929.94;;;17.56;85.76
11448;BME280;43755;49.736;8.734;2023-05-20T09:58:24;97931.72;;;17.32;83.97
11448;BME280;43755;49.736;8.734;2023-05-20T10:00:25;97925.69;;;17.53;88.19
11448;BME280;43755;49.736;8.734;2023-05-20T10:02:27;97930.41;;;17.63;83.99
11448;BME280;43755;49.736;8.734;2023-05-20T10:04:32;97918.41;;;17.68;89.13
11448;BME280;43755;49.736;8.734;2023-05-20T10:06:45;97917.84;;;17.76;83.58
11448;BME280;43755;49.736;8.734;2023-05-20T10:09:04;97913.09;;;17.79;86.33
11448;BME280;43755;49.736;8.734;2023-05-20T10:11:13;97911.00;;;18.08;87.94
11448;BME280;43755;49.736;8.734;2023-05-20T10:13:37;97919.38;;;17.91;81.08
11448;BME280;43755;49.736;8.734;2023-05-20T10:15:50;97923.16;;;18.12;83.40
11448;BME280;43755;49.736;8.734;2023-05-20T10:18:03;97927.41;;;18.38;86.64
11448;BME280;43755;49.736;8.734;2023-05-20T10:20:07;97923.06;;;18.72;81.11
11448;BME280;43755;49.736;8.734;2023-05-20T10:22:10;97919.50;;;18.37;80.54
11448;BME280;43755;49.736;8.734;2023-05-20T10:24:13;97916.53;;;18.53;83.70
11448;BME280;43755;49.736;8.734;2023-05-20T10:26:14;97935.41;;;18.27;79.11
11448;BME280;43755;49.736;8.734;2023-05-20T10:28:15;97915.34;;;18.57;83.74
11448;BME280;43755;49.736;8.734;2023-05-20T10:30:25;97918.31;;;18.41;74.70
11448;BME280;43755;49.736;8.734;2023-05-20T10:32:28;97921.16;;;18.27;78.24
11448;BME280;43755;49.736;8.734;2023-05-20T10:34:44;97924.66;;;18.86;81.13
11448;BME280;43755;49.736;8.734;2023-05-20T10:36:56;97921.78;;;19.11;77.06
11448;BME280;43755;49.736;8.734;2023-05-20T10:38:58;97917.22;;;19.47;76.21
11448;BME280;43755;49.736;8.734;2023-05-20T10:41:07;97930.59;;;19.80;70.06
11448;BME280;43755;49.736;8.734;2023-05-20T10:43:11;97909.00;;;19.15;71.40